createdAt,value
2023-02-07T00:00:00.123Z,-5.99
2023-02-07T00:02:31.848Z,-6.33
2023-02-07T00:05:07.712Z,-6.01
2023-02-07T00:07:40.182Z,-6.06
2023-02-07T00:10:23.137Z,-6.53
2023-02-07T00:12:56.658Z,-6.11
2023-02-07T00:15:32.978Z,-6.14
2023-02-07T00:18:04.418Z,-6.17
2023-02-07T00:20:36.522Z,-6.42
2023-02-07T00:23:10.244Z,-6.24
2023-02-07T00:25:39.690Z,-6.80
2023-02-07T00:28:13.448Z,-6.54
2023-02-07T00:30:45.260Z,-6.24
2023-02-07T00:33:21.580Z,-6.67
2023-02-07T00:36:00.327Z,-6.83
2023-02-07T00:38:34.229Z,-6.30
2023-02-07T00:41:03.612Z,-6.38
2023-02-07T00:43:46.991Z,-6.39
2023-02-07T00:46:28.095Z,-6.43
2023-02-07T00:49:02.542Z,-6.67
2023-02-07T00:51:47.238Z,-6.97
2023-02-07T00:54:22.806Z,-6.56
2023-02-07T00:56:57.238Z,-6.64
2023-02-07T00:59:32.233Z,-6.63
2023-02-07T01:02:04.410Z,-6.70
2023-02-07T01:04:42.765Z,-6.71
2023-02-07T01:07:25.461Z,-6.69
2023-02-07T01:12:55.647Z,-6.93
2023-02-07T01:15:37.757Z,-6.87
2023-02-07T01:18:17.038Z,-6.88
2023-02-07T01:20:53.987Z,-6.88
2023-02-07T01:23:26.349Z,-6.97
2023-02-07T01:25:59.135Z,-7.28
2023-02-07T01:28:30.370Z,-7.52
2023-02-07T01:31:02.259Z,-6.91
2023-02-07T01:33:50.428Z,-6.91
2023-02-07T01:36:29.977Z,-7.35
2023-02-07T01:39:04.494Z,-6.96
2023-02-07T01:41:42.861Z,-6.94
2023-02-07T01:44:25.126Z,-6.87
2023-02-07T01:47:13.186Z,-6.89
2023-02-07T01:49:47.426Z,-7.21
2023-02-07T01:52:50.940Z,-7.18
2023-02-07T01:55:33.935Z,-7.67
2023-02-07T01:58:09.017Z,-7.14
2023-02-07T02:00:46.241Z,-6.96
2023-02-07T02:03:32.724Z,-6.94
2023-02-07T02:06:07.604Z,-7.07
2023-02-07T02:08:43.948Z,-7.03
2023-02-07T02:11:37.038Z,-7.48
2023-02-07T02:14:24.419Z,-7.04
2023-02-07T02:17:34.431Z,-6.97
2023-02-07T02:20:32.012Z,-7.31
2023-02-07T02:23:20.956Z,-7.00
2023-02-07T02:26:17.606Z,-6.98
2023-02-07T02:29:35.390Z,-6.98
2023-02-07T02:32:20.479Z,-7.20
2023-02-07T02:38:04.470Z,-7.00
2023-02-07T02:41:05.903Z,-7.81
2023-02-07T02:43:50.789Z,-6.97
2023-02-07T02:46:35.906Z,-7.07
2023-02-07T02:49:25.282Z,-7.14
2023-02-07T02:52:07.518Z,-7.08
2023-02-07T02:54:48.143Z,-7.61
2023-02-07T02:57:38.705Z,-7.02
2023-02-07T03:00:33.425Z,-6.98
2023-02-07T03:03:50.481Z,-7.04
2023-02-07T03:06:32.522Z,-7.10
2023-02-07T03:09:21.433Z,-7.17
2023-02-07T03:12:14.920Z,-7.56
2023-02-07T03:15:37.686Z,-7.15
2023-02-07T03:18:21.828Z,-7.40
2023-02-07T03:21:22.286Z,-7.59
2023-02-07T03:24:03.252Z,-7.16
2023-02-07T03:26:43.754Z,-7.26
2023-02-07T03:29:24.789Z,-8.22
2023-02-07T03:32:01.052Z,-7.29
2023-02-07T03:35:15.339Z,-8.02
2023-02-07T03:38:04.592Z,-8.11
2023-02-07T03:40:45.092Z,-7.31
2023-02-07T03:43:25.732Z,-7.25
2023-02-07T03:45:56.570Z,-7.36
2023-02-07T03:48:25.543Z,-7.59
2023-02-07T03:50:56.066Z,-7.29
2023-02-07T03:53:28.821Z,-7.87
2023-02-07T03:56:02.788Z,-7.87
2023-02-07T03:58:35.553Z,-7.84
2023-02-07T04:01:11.780Z,-7.66
2023-02-07T04:03:58.294Z,-7.50
2023-02-07T04:06:47.405Z,-7.48
2023-02-07T04:09:27.824Z,-7.24
2023-02-07T04:14:55.137Z,-7.31
2023-02-07T04:17:29.503Z,-7.54
2023-02-07T04:20:24.067Z,-7.46
2023-02-07T04:22:59.762Z,-7.27
2023-02-07T04:25:35.976Z,-7.26
2023-02-07T04:28:14.918Z,-7.30
2023-02-07T04:30:47.832Z,-7.72
2023-02-07T04:33:20.549Z,-7.33
2023-02-07T04:38:51.912Z,-7.34
2023-02-07T04:41:25.158Z,-7.35
2023-02-07T04:44:00.597Z,-7.53
2023-02-07T04:46:33.824Z,-7.32
2023-02-07T04:49:21.163Z,-7.60
2023-02-07T04:52:05.702Z,-7.69
2023-02-07T04:54:41.368Z,-7.88
2023-02-07T04:57:19.153Z,-7.53
2023-02-07T04:59:55.940Z,-7.50
2023-02-07T05:02:29.657Z,-7.32
2023-02-07T05:05:00.908Z,-8.06
2023-02-07T05:07:33.552Z,-7.32
2023-02-07T05:10:24.206Z,-7.34
2023-02-07T05:12:54.832Z,-7.41
2023-02-07T05:15:39.995Z,-7.59
2023-02-07T05:18:16.314Z,-7.60
2023-02-07T05:20:47.913Z,-7.66
2023-02-07T05:23:20.292Z,-7.66
2023-02-07T05:25:52.366Z,-7.58
2023-02-07T05:28:28.363Z,-7.49
2023-02-07T05:31:02.871Z,-7.92
2023-02-07T05:33:43.729Z,-7.44
2023-02-07T05:36:20.706Z,-7.60
2023-02-07T05:38:57.111Z,-7.40
2023-02-07T05:41:39.118Z,-8.36
2023-02-07T05:44:30.866Z,-7.35
2023-02-07T05:47:00.962Z,-7.36
2023-02-07T05:49:34.524Z,-7.95
2023-02-07T05:52:04.283Z,-7.44
2023-02-07T05:57:22.151Z,-7.45
2023-02-07T06:00:19.463Z,-7.61
2023-02-07T06:02:57.380Z,-7.62
2023-02-07T06:05:39.187Z,-7.40
2023-02-07T06:08:11.340Z,-7.41
2023-02-07T06:15:47.596Z,-7.42
2023-02-07T06:21:49.820Z,-7.67
2023-02-07T06:24:29.998Z,-7.34
2023-02-07T06:27:16.460Z,-7.50
2023-02-07T06:30:04.170Z,-7.75
2023-02-07T06:33:00.734Z,-7.17
2023-02-07T06:35:50.150Z,-7.01
2023-02-07T06:38:38.537Z,-7.34
2023-02-07T06:41:16.018Z,-6.81
2023-02-07T06:43:52.202Z,-6.73
2023-02-07T06:55:04.249Z,-6.28
2023-02-07T06:57:42.512Z,-6.13
2023-02-07T07:00:19.769Z,-6.07
2023-02-07T07:03:03.332Z,-6.09
2023-02-07T07:10:54.734Z,-5.63
2023-02-07T07:28:07.610Z,-5.68
2023-02-07T07:37:35.232Z,-4.87
2023-02-07T07:45:44.382Z,-3.09
2023-02-07T07:48:49.419Z,-4.88
2023-02-07T07:51:45.205Z,-3.96
2023-02-07T07:58:49.111Z,-3.90
2023-02-07T08:13:43.198Z,-3.59
2023-02-07T08:24:07.489Z,-3.62
2023-02-07T08:27:32.923Z,-3.63
2023-02-07T08:37:46.298Z,-2.70
2023-02-07T08:48:35.435Z,-2.39
2023-02-07T08:54:57.783Z,-2.09
2023-02-07T08:58:04.333Z,-2.03
2023-02-07T09:01:14.586Z,-2.05
2023-02-07T09:05:14.456Z,-0.55
2023-02-07T09:08:18.750Z,0.46
2023-02-07T09:12:42.497Z,1.69
2023-02-07T09:18:54.148Z,0.38
2023-02-07T09:36:02.281Z,1.17
2023-02-07T09:43:24.527Z,0.26
2023-02-07T09:46:48.101Z,1.59
2023-02-07T09:53:52.066Z,-0.42
2023-02-07T10:00:21.930Z,0.39
2023-02-07T10:03:32.550Z,0.50
2023-02-07T10:06:33.956Z,-0.13
2023-02-07T10:09:20.906Z,-1.09
2023-02-07T10:15:34.103Z,0.15
2023-02-07T10:45:31.794Z,-0.51
2023-02-07T10:49:00.868Z,-0.50
2023-02-07T11:49:25.761Z,-0.17
2023-02-07T11:52:44.179Z,-0.39
2023-02-07T11:56:08.379Z,-0.40
2023-02-07T12:03:48.516Z,-0.30
2023-02-07T13:22:17.327Z,0.38
2023-02-07T13:25:50.467Z,-0.36
2023-02-07T13:29:15.337Z,0.25
2023-02-07T13:33:13.141Z,-0.36
2023-02-07T13:36:07.049Z,-0.70
2023-02-07T13:39:25.627Z,0.18
2023-02-07T14:12:44.585Z,-0.60
2023-02-07T14:16:04.419Z,-0.61
2023-02-07T14:31:37.646Z,-0.88
2023-02-07T14:34:17.829Z,-1.64
2023-02-07T14:44:08.060Z,-0.93
2023-02-07T14:50:33.962Z,-1.06
2023-02-07T14:53:23.298Z,-1.02
2023-02-07T14:56:36.581Z,-1.06
2023-02-07T15:00:30.843Z,-1.00
2023-02-07T15:30:09.157Z,-1.17
2023-02-07T16:21:59.895Z,-2.18
2023-02-07T16:24:34.159Z,-3.11
2023-02-07T16:30:58.631Z,-2.24
2023-02-07T16:33:39.960Z,-2.24
2023-02-07T16:36:34.115Z,-2.98
2023-02-07T16:39:07.134Z,-2.29
2023-02-07T16:41:52.502Z,-2.32
2023-02-07T16:44:30.208Z,-2.39
2023-02-07T16:46:59.121Z,-2.44
2023-02-07T16:49:32.387Z,-2.45
2023-02-07T16:52:14.454Z,-2.47
2023-02-07T16:54:52.917Z,-2.53
2023-02-07T16:57:26.409Z,-2.58
2023-02-07T16:59:57.746Z,-2.64
2023-02-07T17:02:32.398Z,-2.74
2023-02-07T17:05:07.078Z,-2.67
2023-02-07T17:07:38.014Z,-2.71
2023-02-07T17:10:31.014Z,-3.17
2023-02-07T17:13:08.302Z,-2.79
2023-02-07T17:15:38.796Z,-2.82
2023-02-07T17:21:11.412Z,-2.86
2023-02-07T17:23:40.947Z,-2.90
2023-02-07T17:26:46.308Z,-2.91
2023-02-07T17:29:16.664Z,-2.97
2023-02-07T17:31:51.236Z,-3.13
2023-02-07T17:34:23.763Z,-3.05
2023-02-07T17:36:52.182Z,-3.08
2023-02-07T17:39:29.081Z,-3.56
2023-02-07T17:42:05.450Z,-3.17
2023-02-07T17:44:35.566Z,-3.12
2023-02-07T17:47:06.458Z,-3.14
2023-02-07T17:49:36.124Z,-3.29
2023-02-07T17:52:13.428Z,-3.29
2023-02-07T17:54:45.305Z,-3.24
2023-02-07T17:57:15.634Z,-3.29
2023-02-07T17:59:51.676Z,-3.34
2023-02-07T18:02:27.635Z,-3.82
2023-02-07T18:04:58.335Z,-3.38
2023-02-07T18:07:28.298Z,-3.53
2023-02-07T18:09:59.105Z,-3.45
2023-02-07T18:12:28.201Z,-3.48
2023-02-07T18:15:02.608Z,-3.52
2023-02-07T18:17:32.193Z,-3.52
2023-02-07T18:20:13.498Z,-3.54
2023-02-07T18:22:44.527Z,-3.49
2023-02-07T18:25:18.527Z,-3.50
2023-02-07T18:27:57.639Z,-3.58
2023-02-07T18:30:46.494Z,-3.79
2023-02-07T18:33:21.951Z,-3.77
2023-02-07T18:36:04.093Z,-3.93
2023-02-07T18:38:40.359Z,-4.57
2023-02-07T18:41:14.919Z,-4.38
2023-02-07T18:43:49.140Z,-3.95
2023-02-07T18:46:28.748Z,-3.91
2023-02-07T18:48:58.100Z,-3.94
2023-02-07T18:51:27.030Z,-3.98
2023-02-07T18:53:55.618Z,-4.01
2023-02-07T18:56:26.275Z,-4.22
2023-02-07T18:58:59.670Z,-4.14
2023-02-07T19:01:30.819Z,-4.17
2023-02-07T19:04:01.758Z,-4.48
2023-02-07T19:06:33.808Z,-4.14
2023-02-07T19:09:10.569Z,-4.32
2023-02-07T19:11:42.714Z,-4.16
2023-02-07T19:14:17.165Z,-4.53
2023-02-07T19:16:54.244Z,-4.22
2023-02-07T19:19:28.241Z,-4.38
2023-02-07T19:22:05.900Z,-4.23
2023-02-07T19:24:41.927Z,-4.22
2023-02-07T19:27:13.652Z,-4.33
2023-02-07T19:29:42.786Z,-4.38
2023-02-07T19:32:20.484Z,-4.21
2023-02-07T19:34:50.137Z,-4.28
2023-02-07T19:37:25.495Z,-4.32
2023-02-07T19:39:59.449Z,-4.64
2023-02-07T19:42:31.139Z,-4.46
2023-02-07T19:45:00.610Z,-4.55
2023-02-07T19:47:31.489Z,-4.57
2023-02-07T19:50:00.754Z,-4.42
2023-02-07T19:52:32.379Z,-4.43
2023-02-07T19:55:02.907Z,-4.44
2023-02-07T19:57:42.672Z,-4.44
2023-02-07T20:00:23.806Z,-4.52
2023-02-07T20:02:53.005Z,-4.53
2023-02-07T20:05:21.564Z,-4.53
2023-02-07T20:07:52.544Z,-4.57
2023-02-07T20:10:27.584Z,-4.50
2023-02-07T20:12:59.612Z,-5.32
2023-02-07T20:15:31.286Z,-4.80
2023-02-07T20:18:04.979Z,-4.56
2023-02-07T20:20:34.305Z,-4.58
2023-02-07T20:23:02.700Z,-4.69
2023-02-07T20:25:35.048Z,-4.61
2023-02-07T20:28:07.692Z,-4.69
2023-02-07T20:30:42.722Z,-4.82
2023-02-07T20:33:17.906Z,-4.76
2023-02-07T20:35:57.415Z,-4.91
2023-02-07T20:38:36.527Z,-5.00
2023-02-07T20:41:10.343Z,-5.14
2023-02-07T20:43:40.361Z,-4.78
2023-02-07T20:46:41.661Z,-4.88
2023-02-07T20:49:20.032Z,-4.85
2023-02-07T20:51:53.582Z,-4.85
2023-02-07T20:54:24.343Z,-4.83
2023-02-07T20:56:57.749Z,-4.93
2023-02-07T20:59:35.067Z,-4.98
2023-02-07T21:02:07.234Z,-5.03
2023-02-07T21:04:37.548Z,-5.05
2023-02-07T21:07:10.274Z,-5.02
2023-02-07T21:09:46.885Z,-4.96
2023-02-07T21:12:15.559Z,-4.98
2023-02-07T21:14:54.782Z,-4.95
2023-02-07T21:17:28.069Z,-5.00
2023-02-07T21:19:59.825Z,-5.02
2023-02-07T21:22:31.771Z,-5.14
2023-02-07T21:25:04.214Z,-5.12
2023-02-07T21:27:32.715Z,-5.15
2023-02-07T21:30:05.863Z,-5.11
2023-02-07T21:32:37.382Z,-5.11
2023-02-07T21:35:07.656Z,-5.06
2023-02-07T21:37:40.668Z,-5.46
2023-02-07T21:40:12.425Z,-4.99
2023-02-07T21:42:44.081Z,-4.94
2023-02-07T21:45:17.471Z,-5.02
2023-02-07T21:47:50.937Z,-5.02
2023-02-07T21:50:24.567Z,-5.03
2023-02-07T21:52:53.805Z,-5.00
2023-02-07T21:55:22.960Z,-5.07
2023-02-07T21:57:53.989Z,-5.24
2023-02-07T22:00:23.896Z,-5.15
2023-02-07T22:03:01.504Z,-5.18
2023-02-07T22:05:39.051Z,-5.78
2023-02-07T22:08:12.222Z,-5.26
2023-02-07T22:10:56.068Z,-5.30
2023-02-07T22:13:27.704Z,-5.32
2023-02-07T22:16:01.590Z,-5.38
2023-02-07T22:18:32.942Z,-5.50
2023-02-07T22:21:07.919Z,-5.37
2023-02-07T22:23:38.417Z,-5.38
2023-02-07T22:26:07.607Z,-5.41
2023-02-07T22:28:43.732Z,-5.48
2023-02-07T22:31:19.576Z,-5.51
2023-02-07T22:33:49.933Z,-5.46
2023-02-07T22:36:23.564Z,-5.48
2023-02-07T22:38:52.251Z,-5.54
2023-02-07T22:41:31.519Z,-5.51
2023-02-07T22:44:01.688Z,-5.60
2023-02-07T22:50:51.276Z,-6.51
2023-02-07T22:53:20.238Z,-5.87
2023-02-07T22:55:48.505Z,-5.72
2023-02-07T22:58:19.297Z,-5.67
2023-02-07T23:00:50.562Z,-5.69
2023-02-07T23:03:18.703Z,-5.97
2023-02-07T23:05:47.011Z,-5.98
2023-02-07T23:11:32.205Z,-5.88
2023-02-07T23:14:09.917Z,-6.57
2023-02-07T23:16:39.462Z,-5.88
2023-02-07T23:19:13.722Z,-5.76
2023-02-07T23:21:45.133Z,-5.93
2023-02-07T23:24:16.333Z,-5.87
2023-02-07T23:26:46.178Z,-5.96
2023-02-07T23:29:17.780Z,-5.98
2023-02-07T23:31:47.629Z,-5.89
2023-02-07T23:34:16.193Z,-6.77
2023-02-07T23:36:46.658Z,-6.71
2023-02-07T23:39:16.921Z,-5.96
2023-02-07T23:41:47.258Z,-6.26
2023-02-07T23:44:22.551Z,-6.52
2023-02-07T23:46:52.548Z,-6.83
2023-02-07T23:49:24.638Z,-6.09
2023-02-07T23:51:55.393Z,-5.99
2023-02-07T23:54:27.597Z,-6.06
2023-02-07T23:56:56.220Z,-6.06
2023-02-07T23:59:24.857Z,-6.06
